Time;durP1;ratioP1;P1;durP2;ratioP2;P2;SDS_P1;SDS_P2;PMS_P1;PMS_P2;Temp;Humidity;BMP_temperature;BMP_pressure;BME280_temperature;BME280_humidity;BME280_pressure;Samples;Min_cycle;Max_cycle;Signal;HPM_P1;HPM_P2
2021/04/06 00:00:42;;;;;;;3.17;1.00;;;-0.50;99.90;;;;;;5093802;28;20470;-82
2021/04/06 00:03:14;;;;;;;1.63;1.20;;;-0.60;99.90;;;;;;5093648;28;20932;-82
2021/04/06 00:05:42;;;;;;;2.67;1.47;;;-0.60;99.90;;;;;;5093843;28;20549;-82
2021/04/06 00:08:10;;;;;;;2.70;1.30;;;-0.60;99.90;;;;;;5094022;28;20411;-82
2021/04/06 00:10:42;;;;;;;3.23;1.33;;;-0.60;99.90;;;;;;5093558;28;20456;-82
2021/04/06 00:13:09;;;;;;;1.77;1.20;;;-0.60;99.90;;;;;;5093755;28;20418;-81
2021/04/06 00:15:36;;;;;;;4.70;1.50;;;-0.60;99.90;;;;;;5092891;28;20480;-82
2021/04/06 00:18:07;;;;;;;1.40;1.20;;;-0.60;99.90;;;;;;5093885;28;20468;-82
2021/04/06 00:20:37;;;;;;;2.60;1.20;;;-0.60;99.90;;;;;;5093516;28;20803;-82
2021/04/06 00:23:09;;;;;;;1.93;1.40;;;-0.70;99.90;;;;;;5094119;28;20423;-82
2021/04/06 00:25:46;;;;;;;3.40;1.50;;;-0.60;99.90;;;;;;5093469;28;20425;-82
2021/04/06 00:28:17;;;;;;;3.43;1.20;;;-0.60;99.90;;;;;;5093850;28;20436;-83
2021/04/06 00:30:50;;;;;;;4.27;1.50;;;-0.60;99.90;;;;;;5093185;28;20488;-82
2021/04/06 00:33:21;;;;;;;2.90;1.70;;;-0.60;99.90;;;;;;5093168;28;20919;-83
2021/04/06 00:35:54;;;;;;;4.10;1.57;;;-0.60;99.90;;;;;;5093418;28;20753;-83
2021/04/06 00:38:23;;;;;;;1.87;1.00;;;-0.70;99.90;;;;;;5093503;28;20438;-80
2021/04/06 00:40:52;;;;;;;4.63;1.13;;;-0.80;99.90;;;;;;5093054;28;20438;-80
2021/04/06 00:43:19;;;;;;;2.00;1.57;;;-0.80;99.90;;;;;;5093242;28;20411;-83
2021/04/06 00:45:48;;;;;;;3.77;1.60;;;-0.90;99.90;;;;;;5093270;28;20423;-83
2021/04/06 00:48:18;;;;;;;3.03;1.57;;;-0.90;99.90;;;;;;5093087;28;20519;-83
2021/04/06 00:51:07;;;;;;;3.33;1.70;;;-0.80;99.90;;;;;;5093382;28;20471;-83
2021/04/06 00:53:57;;;;;;;2.90;1.33;;;-0.80;99.90;;;;;;5093061;28;20444;-83
2021/04/06 00:56:26;;;;;;;1.77;1.40;;;-0.90;99.90;;;;;;5084762;28;20502;-83
2021/04/06 00:58:54;;;;;;;6.23;1.40;;;-0.90;99.90;;;;;;5093426;28;20537;-83
2021/04/06 01:01:34;;;;;;;1.77;1.47;;;-0.90;99.90;;;;;;5093363;28;20477;-83
2021/04/06 01:04:04;;;;;;;3.33;1.23;;;-0.90;99.90;;;;;;5093271;28;20458;-81
2021/04/06 01:06:33;;;;;;;5.23;1.40;;;-0.90;99.90;;;;;;5092682;28;20432;-81
2021/04/06 01:09:00;;;;;;;2.40;1.40;;;-0.90;99.90;;;;;;5092709;28;20460;-81
2021/04/06 01:11:26;;;;;;;1.43;1.30;;;-0.90;99.90;;;;;;5092837;28;20425;-81
2021/04/06 01:14:08;;;;;;;1.10;0.90;;;-1.00;99.90;;;;;;5092907;28;20445;-81
2021/04/06 01:16:35;;;;;;;1.93;1.23;;;-1.10;99.90;;;;;;5092682;28;20486;-80
2021/04/06 01:19:02;;;;;;;1.43;1.07;;;-1.10;99.90;;;;;;5092630;28;20545;-80
2021/04/06 01:21:28;;;;;;;2.67;1.27;;;-1.10;99.90;;;;;;5092765;28;20436;-81
2021/04/06 01:23:56;;;;;;;3.43;1.70;;;-1.10;99.90;;;;;;5092549;28;20986;-81
2021/04/06 01:26:22;;;;;;;4.17;1.50;;;-1.10;99.90;;;;;;5092112;28;20475;-82
2021/04/06 01:28:49;;;;;;;1.53;1.20;;;-1.10;99.90;;;;;;5096658;28;20415;-82
2021/04/06 01:31:15;;;;;;;2.00;1.33;;;-1.10;99.90;;;;;;5097011;28;20489;-82
2021/04/06 01:33:43;;;;;;;2.77;1.50;;;-1.00;99.90;;;;;;5096566;28;20525;-81
2021/04/06 01:36:10;;;;;;;2.40;1.27;;;-1.00;99.90;;;;;;5096469;28;20406;-81
2021/04/06 01:38:38;;;;;;;1.67;1.20;;;-1.00;99.90;;;;;;5096241;28;20524;-80
2021/04/06 01:41:05;;;;;;;1.40;1.30;;;-1.10;99.90;;;;;;5096627;28;20419;-81
2021/04/06 01:43:33;;;;;;;1.70;1.17;;;-1.10;99.90;;;;;;5096225;28;20539;-81
2021/04/06 01:46:05;;;;;;;3.23;1.67;;;-1.20;99.90;;;;;;5096633;28;20505;-80
2021/04/06 01:48:33;;;;;;;2.50;1.10;;;-1.20;99.90;;;;;;5096153;28;20442;-81
2021/04/06 01:51:00;;;;;;;2.13;1.30;;;-1.20;99.90;;;;;;5096076;28;20794;-80
2021/04/06 01:53:26;;;;;;;2.90;1.27;;;-1.20;99.90;;;;;;5087350;28;20448;-81
2021/04/06 01:55:57;;;;;;;1.10;1.10;;;-1.30;99.90;;;;;;5096306;28;20439;-80
2021/04/06 01:58:27;;;;;;;1.60;1.10;;;-1.30;99.90;;;;;;5096331;28;20468;-81
2021/04/06 02:01:07;;;;;;;3.80;1.70;;;-1.30;99.90;;;;;;5096471;28;20435;-81
2021/04/06 02:03:37;;;;;;;1.47;1.37;;;-1.30;99.90;;;;;;5089486;28;20414;-83
2021/04/06 02:06:05;;;;;;;2.13;1.07;;;-1.30;99.90;;;;;;5095983;28;21025;-83
2021/04/06 02:08:32;;;;;;;1.40;1.30;;;-1.30;99.90;;;;;;5096310;28;20447;-83
2021/04/06 02:10:58;;;;;;;1.07;0.80;;;-1.30;99.90;;;;;;5095848;28;20464;-83
2021/04/06 02:13:26;;;;;;;2.13;1.17;;;-1.40;99.90;;;;;;5095962;28;21008;-81
2021/04/06 02:15:57;;;;;;;4.93;1.47;;;-1.40;99.90;;;;;;5086908;28;20930;-81
2021/04/06 02:18:25;;;;;;;1.43;1.33;;;-1.40;99.90;;;;;;5095864;28;20461;-81
2021/04/06 02:20:52;;;;;;;1.43;1.17;;;-1.40;99.90;;;;;;5095800;28;20444;-81
2021/04/06 02:23:19;;;;;;;1.53;1.43;;;-1.40;99.90;;;;;;5096165;28;20425;-81
2021/04/06 02:25:51;;;;;;;3.47;1.20;;;-1.40;99.90;;;;;;5095519;28;20448;-81
2021/04/06 02:28:17;;;;;;;3.30;1.57;;;-1.50;99.90;;;;;;5095715;28;20448;-81
2021/04/06 02:30:55;;;;;;;5.60;1.33;;;-1.50;99.90;;;;;;5096157;28;20442;-81
2021/04/06 02:33:26;;;;;;;1.10;0.77;;;-1.50;99.90;;;;;;5095784;28;20463;-81
2021/04/06 02:36:04;;;;;;;1.50;1.10;;;-1.50;99.90;;;;;;5095633;28;20444;-81
2021/04/06 02:38:32;;;;;;;4.33;1.23;;;-1.50;99.90;;;;;;5086332;28;21882;-81
2021/04/06 02:41:06;;;;;;;1.70;1.27;;;-1.50;99.90;;;;;;5095179;28;20460;-81
2021/04/06 02:43:43;;;;;;;2.60;1.30;;;-1.40;99.90;;;;;;5095144;28;20411;-81
2021/04/06 02:46:11;;;;;;;1.27;1.10;;;-1.50;99.90;;;;;;5095319;28;20440;-82
2021/04/06 02:48:37;;;;;;;1.30;1.20;;;-1.50;99.90;;;;;;5094831;28;20447;-82
2021/04/06 02:51:04;;;;;;;1.50;1.33;;;-1.50;99.90;;;;;;5095440;28;20439;-82
2021/04/06 02:53:32;;;;;;;1.50;1.40;;;-1.50;99.90;;;;;;5095408;28;20418;-82
2021/04/06 02:55:59;;;;;;;2.50;1.20;;;-1.50;99.90;;;;;;5095409;28;20422;-83
2021/04/06 02:58:25;;;;;;;2.53;1.33;;;-1.50;99.90;;;;;;5095360;28;20483;-81
2021/04/06 03:00:52;;;;;;;2.40;1.50;;;-1.50;99.90;;;;;;5095129;28;20468;-82
2021/04/06 03:03:23;;;;;;;1.00;1.00;;;-1.60;99.90;;;;;;5094882;28;20432;-83
2021/04/06 03:06:00;;;;;;;4.93;1.40;;;-1.60;99.90;;;;;;5096637;28;20451;-81
2021/04/06 03:08:29;;;;;;;3.20;1.10;;;-1.60;99.90;;;;;;5114015;28;20902;-82
2021/04/06 03:10:55;;;;;;;1.40;1.30;;;-1.60;99.90;;;;;;5094676;28;20423;-83
2021/04/06 03:13:24;;;;;;;1.60;1.40;;;-1.60;99.90;;;;;;5095128;28;20440;-83
2021/04/06 03:15:51;;;;;;;4.10;1.73;;;-1.60;99.90;;;;;;5094992;28;20452;-82
2021/04/06 03:18:18;;;;;;;2.03;1.60;;;-1.70;99.90;;;;;;5094482;28;20990;-83
2021/04/06 03:20:45;;;;;;;3.30;1.23;;;-1.60;99.90;;;;;;5094704;28;20455;-82
2021/04/06 03:23:11;;;;;;;3.00;1.33;;;-1.60;99.90;;;;;;5094810;28;20513;-82
2021/04/06 03:25:39;;;;;;;2.83;1.70;;;-1.60;99.90;;;;;;5094518;28;20415;-83
2021/04/06 03:28:06;;;;;;;5.70;1.93;;;-1.60;99.90;;;;;;5094816;28;20786;-83
2021/04/06 03:30:34;;;;;;;2.30;1.67;;;-1.60;99.90;;;;;;5094257;28;20442;-82
2021/04/06 03:33:02;;;;;;;1.73;1.60;;;-1.70;99.90;;;;;;5094981;28;20426;-82
2021/04/06 03:35:29;;;;;;;3.60;1.40;;;-1.60;99.90;;;;;;5094311;28;20497;-82
2021/04/06 03:37:57;;;;;;;3.20;1.37;;;-1.60;99.90;;;;;;5094423;28;20479;-82
2021/04/06 03:40:23;;;;;;;3.73;1.47;;;-1.60;99.90;;;;;;5086611;28;20442;-82
2021/04/06 03:42:50;;;;;;;6.90;1.70;;;-1.60;99.90;;;;;;5094418;28;20427;-82
2021/04/06 03:45:17;;;;;;;3.03;1.80;;;-1.70;99.90;;;;;;5094135;28;20444;-83
2021/04/06 03:47:57;;;;;;;4.90;1.80;;;-1.70;99.90;;;;;;5094302;28;20450;-82
2021/04/06 03:50:37;;;;;;;7.23;1.87;;;-1.70;99.90;;;;;;5093009;28;20446;-83
2021/04/06 03:53:07;;;;;;;2.53;2.23;;;-1.70;99.90;;;;;;5094245;28;20440;-83
2021/04/06 03:55:34;;;;;;;3.03;1.40;;;-1.60;99.90;;;;;;5093602;28;20425;-83
2021/04/06 03:58:11;;;;;;;1.73;1.63;;;-1.70;99.90;;;;;;5094137;28;20471;-82
2021/04/06 04:00:37;;;;;;;1.77;1.67;;;-1.70;99.90;;;;;;5093534;28;20471;-83
2021/04/06 04:03:04;;;;;;;2.37;1.93;;;-1.70;99.90;;;;;;5094162;28;20414;-83
2021/04/06 04:05:30;;;;;;;2.50;1.83;;;-1.70;99.90;;;;;;5093743;28;20423;-82
2021/04/06 04:07:57;;;;;;;2.40;1.63;;;-1.70;99.90;;;;;;5094085;28;20425;-82
2021/04/06 04:10:25;;;;;;;2.00;1.80;;;-1.70;99.90;;;;;;5093771;28;20438;-82
2021/04/06 04:12:51;;;;;;;2.10;1.70;;;-1.70;99.90;;;;;;5094015;28;20816;-83
2021/04/06 04:15:18;;;;;;;1.63;1.53;;;-1.70;99.90;;;;;;5093876;28;20430;-82
2021/04/06 04:17:47;;;;;;;3.60;1.73;;;-1.60;99.90;;;;;;5093631;28;20536;-83
2021/04/06 04:20:15;;;;;;;5.50;1.90;;;-1.60;99.90;;;;;;5093328;28;20971;-82
2021/04/06 04:22:41;;;;;;;4.13;1.67;;;-1.70;99.90;;;;;;5093526;28;20866;-82
2021/04/06 04:25:09;;;;;;;4.33;1.50;;;-1.70;99.90;;;;;;5093513;28;20443;-82
2021/04/06 04:27:36;;;;;;;4.03;1.63;;;-1.70;99.90;;;;;;5093385;28;20910;-82
2021/04/06 04:30:03;;;;;;;2.20;1.60;;;-1.70;99.90;;;;;;5093539;28;20947;-82
2021/04/06 04:32:29;;;;;;;3.37;1.77;;;-1.60;99.90;;;;;;5093591;28;20414;-82
2021/04/06 04:34:55;;;;;;;4.10;1.87;;;-1.50;99.90;;;;;;5093667;28;20483;-82
2021/04/06 04:37:21;;;;;;;11.43;2.03;;;-1.50;99.90;;;;;;5093456;28;20440;-82
2021/04/06 04:39:47;;;;;;;4.30;1.70;;;-1.40;99.90;;;;;;5092793;28;21013;-82
2021/04/06 04:42:14;;;;;;;6.50;2.20;;;-1.40;99.90;;;;;;5093445;28;20531;-83
2021/04/06 04:44:41;;;;;;;3.37;2.20;;;-1.40;99.90;;;;;;5093156;28;20403;-82
2021/04/06 04:47:07;;;;;;;2.87;2.10;;;-1.30;99.90;;;;;;5092688;28;20450;-82
2021/04/06 04:49:33;;;;;;;2.30;1.97;;;-1.30;99.90;;;;;;5093269;28;20471;-82
2021/04/06 04:52:00;;;;;;;1.97;1.77;;;-1.30;99.90;;;;;;5092849;28;20540;-82
2021/04/06 04:54:27;;;;;;;2.70;1.60;;;-1.30;99.90;;;;;;5085325;28;20446;-82
2021/04/06 04:56:53;;;;;;;2.10;1.73;;;-1.30;99.90;;;;;;5093248;28;20448;-82
2021/04/06 04:59:20;;;;;;;3.17;1.73;;;-1.10;99.90;;;;;;5092703;28;20480;-83
2021/04/06 05:01:47;;;;;;;6.00;1.83;;;-1.10;99.90;;;;;;5092823;28;20926;-82
2021/04/06 05:04:13;;;;;;;4.97;1.83;;;-1.10;99.90;;;;;;5093182;28;20493;-83
2021/04/06 05:06:39;;;;;;;1.80;1.70;;;-1.00;99.90;;;;;;5092743;28;20403;-83
2021/04/06 05:09:07;;;;;;;2.93;2.30;;;-1.00;99.90;;;;;;5093354;28;20791;-82
2021/04/06 05:11:34;;;;;;;2.77;1.70;;;-1.00;99.90;;;;;;5092721;28;20451;-83
2021/04/06 05:14:00;;;;;;;4.97;2.10;;;-1.00;99.90;;;;;;5092959;28;20419;-82
2021/04/06 05:16:27;;;;;;;5.13;1.90;;;-1.00;99.90;;;;;;5092709;28;20426;-82
2021/04/06 05:18:54;;;;;;;1.60;1.50;;;-1.00;99.90;;;;;;5093011;28;20811;-82
2021/04/06 05:21:20;;;;;;;3.67;1.50;;;-1.00;99.90;;;;;;5092344;28;20890;-83
2021/04/06 05:23:46;;;;;;;1.60;1.30;;;-1.00;99.90;;;;;;5093532;28;20456;-82
2021/04/06 05:26:12;;;;;;;3.73;1.80;;;-0.90;99.90;;;;;;5092978;28;20422;-82
2021/04/06 05:28:39;;;;;;;4.27;2.03;;;-0.80;99.90;;;;;;5092702;28;20456;-82
2021/04/06 05:31:05;;;;;;;3.80;1.60;;;-0.80;99.90;;;;;;5092668;28;20455;-82
2021/04/06 05:33:31;;;;;;;2.30;1.87;;;-0.80;99.90;;;;;;5092656;28;20755;-82
2021/04/06 05:35:58;;;;;;;3.30;1.50;;;-0.80;99.90;;;;;;5092857;28;20419;-82
2021/04/06 05:38:24;;;;;;;6.73;1.83;;;-0.80;99.90;;;;;;5092797;28;20456;-82
2021/04/06 05:40:51;;;;;;;4.47;1.73;;;-0.70;99.90;;;;;;5092350;28;20429;-82
2021/04/06 05:43:18;;;;;;;2.60;1.73;;;-0.60;99.90;;;;;;5092489;28;20910;-82
2021/04/06 05:45:48;;;;;;;4.53;1.70;;;-0.60;99.90;;;;;;5092408;28;20444;-83
2021/04/06 05:48:16;;;;;;;5.07;1.97;;;-0.60;99.90;;;;;;5092408;28;20442;-82
2021/04/06 05:50:47;;;;;;;5.50;2.03;;;-0.60;99.90;;;;;;5092521;28;20972;-82
2021/04/06 05:53:14;;;;;;;3.73;1.90;;;-0.60;99.90;;;;;;5092973;28;20423;-82
2021/04/06 05:55:41;;;;;;;3.90;1.53;;;-0.60;99.90;;;;;;5092409;28;20448;-82
2021/04/06 05:58:07;;;;;;;2.17;1.97;;;-0.50;99.90;;;;;;5084018;28;20471;-82
2021/04/06 06:00:34;;;;;;;3.63;1.77;;;-0.30;99.90;;;;;;5092351;28;20452;-82
2021/04/06 06:03:00;;;;;;;2.70;2.07;;;-0.20;99.90;;;;;;5092570;28;20917;-82
2021/04/06 06:05:27;;;;;;;13.80;2.10;;;-0.20;99.90;;;;;;5092037;28;20937;-82
2021/04/06 06:07:54;;;;;;;2.30;1.90;;;-0.20;99.90;;;;;;5092132;28;20444;-82
2021/04/06 06:10:32;;;;;;;6.53;1.60;;;-0.10;99.90;;;;;;5092443;28;20472;-82
2021/04/06 06:13:15;;;;;;;5.27;1.53;;;-0.10;99.90;;;;;;5092113;28;20993;-82
2021/04/06 06:15:41;;;;;;;1.37;1.27;;;0.10;99.90;;;;;;5095383;28;20947;-82
2021/04/06 06:18:08;;;;;;;3.10;1.70;;;0.20;99.90;;;;;;5096041;28;20482;-82
2021/04/06 06:20:36;;;;;;;7.77;3.13;;;0.30;99.90;;;;;;5096088;28;20474;-82
2021/04/06 06:23:23;;;;;;;7.67;2.00;;;0.30;99.90;;;;;;5095954;28;20510;-83
2021/04/06 06:26:19;;;;;;;6.53;1.57;;;0.40;99.90;;;;;;5092467;28;20497;-82
2021/04/06 06:29:08;;;;;;;5.70;1.57;;;0.40;99.90;;;;;;5096081;28;20494;-83
2021/04/06 06:31:45;;;;;;;1.50;1.40;;;0.40;99.90;;;;;;5095997;28;20915;-83
2021/04/06 06:34:39;;;;;;;5.47;1.47;;;0.50;99.90;;;;;;5096338;28;20431;-83
2021/04/06 06:37:10;;;;;;;2.90;1.50;;;0.50;99.90;;;;;;5096078;28;20410;-83
2021/04/06 06:39:37;;;;;;;1.87;1.67;;;0.50;99.90;;;;;;5095948;28;20490;-83
2021/04/06 06:42:11;;;;;;;4.93;1.53;;;0.50;99.90;;;;;;5095724;28;20440;-83
2021/04/06 06:44:38;;;;;;;3.13;1.63;;;0.40;99.90;;;;;;5096148;28;20439;-83
2021/04/06 06:47:07;;;;;;;7.13;2.43;;;0.60;99.90;;;;;;5095405;28;20450;-83
2021/04/06 06:49:37;;;;;;;1.70;1.60;;;0.70;99.90;;;;;;5095531;28;20448;-82
2021/04/06 06:52:06;;;;;;;4.37;1.40;;;0.80;99.90;;;;;;5095623;28;20903;-83
2021/04/06 06:54:39;;;;;;;5.13;1.97;;;1.00;99.90;;;;;;5095298;28;20444;-83
2021/04/06 06:57:11;;;;;;;1.50;1.37;;;1.00;99.90;;;;;;5095684;28;20435;-83
2021/04/06 06:59:39;;;;;;;7.00;1.60;;;1.00;99.90;;;;;;5095953;28;20458;-82
2021/04/06 07:02:25;;;;;;;2.13;1.43;;;1.20;99.90;;;;;;5095495;28;20436;-83
2021/04/06 07:04:52;;;;;;;1.47;1.33;;;1.40;99.90;;;;;;5095756;28;20444;-82
2021/04/06 07:07:18;;;;;;;2.30;1.60;;;1.60;99.90;;;;;;5095758;28;20448;-82
2021/04/06 07:09:47;;;;;;;2.17;1.17;;;1.80;99.90;;;;;;5096321;28;20472;-83
2021/04/06 07:12:16;;;;;;;2.80;1.70;;;2.10;99.90;;;;;;5099446;28;20448;-83
2021/04/06 07:14:44;;;;;;;4.93;1.33;;;2.20;99.90;;;;;;5099703;28;20444;-82
2021/04/06 07:17:11;;;;;;;2.90;1.50;;;2.60;99.90;;;;;;5097885;28;20454;-84
2021/04/06 07:19:41;;;;;;;1.43;1.33;;;2.80;99.90;;;;;;5098692;28;20491;-82
2021/04/06 07:22:12;;;;;;;2.10;1.83;;;3.10;99.90;;;;;;5098427;28;20424;-83
2021/04/06 07:24:40;;;;;;;2.00;1.30;;;3.40;99.90;;;;;;5097793;28;20798;-83
2021/04/06 07:27:08;;;;;;;2.17;1.97;;;4.00;99.90;;;;;;5097411;28;20428;-83
2021/04/06 07:29:37;;;;;;;2.13;1.30;;;4.90;99.90;;;;;;5095719;28;20464;-83
2021/04/06 07:32:04;;;;;;;5.37;1.50;;;5.80;99.90;;;;;;5094811;28;20939;-85
2021/04/06 07:34:31;;;;;;;2.50;1.47;;;6.90;99.90;;;;;;5094883;28;20448;-83
2021/04/06 07:37:03;;;;;;;2.20;1.20;;;7.90;99.90;;;;;;5094909;28;20456;-82
2021/04/06 07:39:29;;;;;;;2.83;1.37;;;8.80;99.00;;;;;;5078899;28;20483;-82
2021/04/06 07:41:56;;;;;;;2.17;1.90;;;9.50;97.40;;;;;;5097422;28;20502;-82
2021/04/06 07:44:25;;;;;;;3.97;1.77;;;10.20;91.90;;;;;;5099034;28;20446;-83
2021/04/06 07:46:52;;;;;;;2.13;1.37;;;10.80;87.10;;;;;;5099270;28;20523;-84
2021/04/06 07:49:38;;;;;;;2.93;1.23;;;10.80;79.70;;;;;;5110560;28;20464;-84
2021/04/06 07:52:15;;;;;;;4.00;1.40;;;10.70;76.80;;;;;;5107263;28;20444;-84
2021/04/06 07:54:47;;;;;;;3.60;1.53;;;10.50;74.60;;;;;;5085643;28;20881;-84
2021/04/06 07:57:15;;;;;;;3.53;1.53;;;9.90;74.70;;;;;;5096006;28;20452;-83
2021/04/06 07:59:51;;;;;;;2.10;1.20;;;9.80;74.10;;;;;;5095552;28;20484;-82
2021/04/06 08:02:27;;;;;;;5.47;1.30;;;9.80;76.70;;;;;;5095732;28;20436;-84
2021/04/06 08:04:55;;;;;;;2.73;1.40;;;9.80;70.90;;;;;;5096131;28;20450;-83
2021/04/06 08:07:32;;;;;;;3.63;1.30;;;9.70;72.90;;;;;;5096128;28;20434;-83
2021/04/06 08:10:00;;;;;;;3.60;1.70;;;9.80;75.70;;;;;;5096310;28;20503;-82
2021/04/06 08:12:28;;;;;;;2.60;1.40;;;9.60;74.60;;;;;;5096344;28;20428;-82
2021/04/06 08:14:56;;;;;;;2.57;1.57;;;9.30;73.60;;;;;;5095118;28;20458;-83
2021/04/06 08:17:49;;;;;;;3.50;1.20;;;9.10;74.20;;;;;;5094342;28;20413;-82
2021/04/06 08:20:29;;;;;;;2.10;1.30;;;8.90;72.70;;;;;;5094398;28;20468;-82
2021/04/06 08:22:57;;;;;;;4.57;1.57;;;8.60;74.20;;;;;;5094306;28;20436;-84
2021/04/06 08:25:53;;;;;;;3.00;1.40;;;8.50;77.20;;;;;;5094399;28;20436;-84
2021/04/06 08:28:40;;;;;;;4.27;1.37;;;8.30;75.40;;;;;;5094259;28;20473;-83
2021/04/06 08:31:31;;;;;;;1.43;1.00;;;7.60;76.00;;;;;;5095532;28;20431;-82
2021/04/06 08:34:28;;;;;;;4.00;1.70;;;7.00;78.50;;;;;;5084889;28;20456;-82
2021/04/06 08:37:12;;;;;;;4.37;2.63;;;6.60;81.50;;;;;;5093247;28;20490;-81
2021/04/06 08:39:39;;;;;;;2.13;1.40;;;6.20;84.20;;;;;;5093606;28;20495;-80
2021/04/06 08:42:08;;;;;;;2.47;1.43;;;6.00;83.70;;;;;;5093837;28;20429;-81
2021/04/06 08:44:36;;;;;;;1.93;1.47;;;5.70;85.40;;;;;;5093524;28;20901;-81
2021/04/06 08:47:03;;;;;;;1.50;1.40;;;5.50;88.80;;;;;;5093259;28;20468;-80
2021/04/06 08:49:30;;;;;;;6.40;1.23;;;5.50;90.40;;;;;;5093636;28;20478;-80
2021/04/06 08:51:58;;;;;;;3.90;1.40;;;5.40;90.40;;;;;;5093337;28;20474;-80
2021/04/06 08:54:26;;;;;;;3.63;1.03;;;5.40;90.30;;;;;;5093258;28;20462;-80
2021/04/06 08:56:55;;;;;;;1.67;1.57;;;5.30;89.70;;;;;;5093227;28;20475;-80
2021/04/06 08:59:25;;;;;;;3.13;1.70;;;5.10;90.10;;;;;;5093440;28;20491;-80
2021/04/06 09:01:57;;;;;;;1.23;1.10;;;5.00;90.10;;;;;;5093716;28;20545;-85
2021/04/06 09:04:27;;;;;;;7.17;1.43;;;4.90;90.60;;;;;;5093949;28;20436;-85
2021/04/06 09:06:54;;;;;;;1.50;1.40;;;4.80;91.90;;;;;;5093719;28;20421;-85
2021/04/06 09:09:23;;;;;;;2.90;1.10;;;4.90;90.90;;;;;;5093287;28;20460;-85
2021/04/06 09:11:50;;;;;;;5.90;1.80;;;5.00;90.50;;;;;;5093255;28;20413;-82
2021/04/06 09:14:16;;;;;;;2.80;1.23;;;5.30;91.20;;;;;;5093254;28;20439;-82
2021/04/06 09:16:43;;;;;;;1.30;1.20;;;5.50;90.00;;;;;;5093044;28;20808;-82
2021/04/06 09:19:12;;;;;;;2.67;1.00;;;5.90;89.80;;;;;;5093233;28;20483;-82
2021/04/06 09:21:40;;;;;;;2.30;1.30;;;6.30;90.00;;;;;;5093181;28;20448;-82
2021/04/06 09:24:10;;;;;;;2.30;0.90;;;6.20;86.20;;;;;;5092972;28;20412;-82
2021/04/06 09:26:37;;;;;;;1.07;1.07;;;6.40;86.60;;;;;;5093263;28;20436;-82
2021/04/06 09:29:07;;;;;;;1.67;1.00;;;6.50;84.90;;;;;;5092853;28;21037;-82
2021/04/06 09:31:35;;;;;;;1.23;1.00;;;7.10;87.30;;;;;;5093043;28;20421;-82
2021/04/06 09:34:12;;;;;;;1.10;0.97;;;7.60;89.00;;;;;;5093137;28;20413;-83
2021/04/06 09:36:41;;;;;;;1.83;0.80;;;8.70;84.00;;;;;;5093275;28;20428;-82
2021/04/06 09:39:10;;;;;;;1.53;0.80;;;9.10;79.80;;;;;;5093009;28;20496;-83
2021/04/06 09:41:40;;;;;;;1.50;0.93;;;8.90;76.90;;;;;;5093163;28;20988;-85
2021/04/06 09:44:09;;;;;;;1.43;0.80;;;9.20;78.20;;;;;;5093591;28;20440;-83
2021/04/06 09:46:39;;;;;;;2.67;0.97;;;9.70;75.90;;;;;;5093146;28;20493;-83
2021/04/06 09:49:05;;;;;;;1.07;0.97;;;10.80;72.30;;;;;;5095352;28;20525;-82
2021/04/06 09:51:32;;;;;;;1.57;0.77;;;11.00;69.30;;;;;;5097168;28;20515;-83
2021/04/06 09:54:04;;;;;;;1.20;0.70;;;10.70;67.30;;;;;;5096861;28;20942;-83
2021/04/06 09:56:34;;;;;;;2.60;0.70;;;10.20;65.00;;;;;;5097050;28;20493;-83
2021/04/06 09:59:01;;;;;;;4.83;1.30;;;9.30;69.20;;;;;;5096642;28;20476;-82
2021/04/06 10:01:28;;;;;;;0.90;0.80;;;8.90;72.50;;;;;;5096938;28;20429;-82
2021/04/06 10:03:57;;;;;;;2.10;0.90;;;8.30;72.70;;;;;;5096828;28;20436;-82
2021/04/06 10:06:37;;;;;;;1.60;0.70;;;8.20;75.90;;;;;;5097069;28;20510;-82
2021/04/06 10:09:20;;;;;;;1.90;0.87;;;8.70;79.30;;;;;;5096993;28;20464;-82
2021/04/06 10:11:48;;;;;;;2.30;0.67;;;9.90;73.80;;;;;;5096911;28;20779;-82
2021/04/06 10:14:14;;;;;;;2.13;0.90;;;10.80;73.60;;;;;;5097005;28;20768;-81
2021/04/06 10:16:42;;;;;;;2.30;0.80;;;11.10;68.40;;;;;;5096893;28;20431;-82
2021/04/06 10:19:19;;;;;;;2.50;1.57;;;10.90;68.10;;;;;;5096351;28;21017;-82
2021/04/06 10:22:00;;;;;;;0.80;0.70;;;10.50;67.20;;;;;;5097147;28;20444;-82
2021/04/06 10:24:28;;;;;;;1.80;0.93;;;10.80;69.00;;;;;;5095625;28;20432;-81
2021/04/06 10:27:19;;;;;;;2.40;1.10;;;11.40;65.90;;;;;;5096466;28;20441;-82
2021/04/06 10:29:51;;;;;;;1.90;0.90;;;12.30;67.60;;;;;;5096567;28;20532;-83
2021/04/06 10:32:28;;;;;;;3.03;0.97;;;13.10;62.20;;;;;;5096519;28;20432;-82
2021/04/06 10:34:57;;;;;;;0.77;0.77;;;13.70;57.00;;;;;;5096262;28;20412;-82
2021/04/06 10:37:23;;;;;;;1.40;0.90;;;13.90;58.30;;;;;;5096085;28;20933;-82
2021/04/06 10:39:50;;;;;;;3.20;0.70;;;13.60;56.80;;;;;;5095983;28;21031;-82
2021/04/06 10:42:18;;;;;;;1.27;0.70;;;13.20;58.30;;;;;;5095869;28;20923;-82
2021/04/06 10:44:46;;;;;;;2.80;0.90;;;12.50;57.00;;;;;;5095800;28;20432;-81
2021/04/06 10:47:25;;;;;;;2.10;0.80;;;11.70;58.40;;;;;;5096565;28;20563;-81
2021/04/06 10:49:56;;;;;;;1.33;0.90;;;10.90;61.40;;;;;;5095815;28;20460;-82
2021/04/06 10:52:33;;;;;;;1.20;0.80;;;9.80;59.60;;;;;;5095890;28;20429;-81
2021/04/06 10:55:00;;;;;;;1.23;0.80;;;9.50;62.60;;;;;;5095949;28;20412;-81
2021/04/06 10:57:29;;;;;;;3.17;1.13;;;9.30;63.70;;;;;;5095803;28;20466;-82
2021/04/06 10:59:56;;;;;;;6.30;2.90;;;9.00;62.40;;;;;;5095192;28;20488;-81
2021/04/06 11:02:24;;;;;;;4.57;2.10;;;10.00;63.90;;;;;;5095974;28;20416;-81
2021/04/06 11:04:50;;;;;;;2.60;1.20;;;10.80;61.00;;;;;;5096144;28;20429;-81
2021/04/06 11:07:27;;;;;;;1.57;0.90;;;11.30;62.40;;;;;;5095799;28;20419;-82
2021/04/06 11:09:54;;;;;;;1.73;1.13;;;11.40;61.40;;;;;;5095209;28;20475;-81
2021/04/06 11:12:20;;;;;;;3.90;1.67;;;11.00;58.50;;;;;;5095340;28;20989;-82
2021/04/06 11:14:48;;;;;;;3.47;1.53;;;10.60;59.50;;;;;;5096139;28;20448;-81
2021/04/06 11:17:14;;;;;;;1.80;1.00;;;10.20;60.10;;;;;;5095982;28;20428;-81
2021/04/06 11:19:42;;;;;;;1.83;1.20;;;9.80;61.70;;;;;;5095233;28;20513;-81
2021/04/06 11:22:11;;;;;;;1.53;1.33;;;9.80;62.80;;;;;;5095347;28;20522;-81
2021/04/06 11:24:38;;;;;;;3.73;1.73;;;9.80;62.70;;;;;;5095243;28;20433;-81
2021/04/06 11:27:06;;;;;;;3.90;1.50;;;9.50;62.50;;;;;;5095078;28;20470;-80
2021/04/06 11:29:34;;;;;;;1.73;1.30;;;9.30;62.40;;;;;;5094829;28;20467;-81
2021/04/06 11:32:04;;;;;;;2.90;1.23;;;8.90;62.60;;;;;;5095147;28;20793;-81
2021/04/06 11:34:32;;;;;;;3.10;1.30;;;8.50;62.10;;;;;;5095035;28;20436;-81
2021/04/06 11:36:58;;;;;;;1.97;1.33;;;8.30;63.50;;;;;;5095075;28;20436;-81
2021/04/06 11:39:28;;;;;;;3.07;1.10;;;8.30;64.20;;;;;;5094564;28;20476;-81
2021/04/06 11:41:55;;;;;;;2.03;1.00;;;8.20;62.90;;;;;;5095197;28;20432;-82
2021/04/06 11:44:22;;;;;;;3.50;1.40;;;8.10;65.60;;;;;;5094569;28;20911;-81
2021/04/06 11:46:48;;;;;;;3.30;1.23;;;8.10;64.90;;;;;;5094556;28;20912;-82
2021/04/06 11:49:17;;;;;;;1.30;1.20;;;8.20;68.20;;;;;;5094797;28;20463;-81
2021/04/06 11:51:44;;;;;;;3.47;1.30;;;8.40;67.50;;;;;;5094758;28;20451;-81
2021/04/06 11:54:13;;;;;;;7.80;1.00;;;8.60;64.60;;;;;;5094440;28;20903;-81
2021/04/06 11:56:39;;;;;;;2.50;1.17;;;8.60;66.40;;;;;;5094678;28;20428;-81
2021/04/06 11:59:06;;;;;;;2.40;1.23;;;8.80;65.60;;;;;;5094497;28;20846;-81
2021/04/06 12:01:33;;;;;;;1.37;1.17;;;9.00;64.60;;;;;;5094357;28;20772;-81
2021/04/06 12:04:00;;;;;;;2.70;1.23;;;9.30;63.60;;;;;;5094811;28;20440;-80
2021/04/06 12:06:27;;;;;;;3.20;1.60;;;9.20;62.90;;;;;;5094194;28;20438;-81
2021/04/06 12:08:54;;;;;;;3.30;1.27;;;9.10;60.40;;;;;;5094383;28;20432;-81
2021/04/06 12:11:20;;;;;;;2.70;1.10;;;8.90;60.60;;;;;;5093541;28;20930;-81
2021/04/06 12:13:47;;;;;;;3.63;1.30;;;8.70;60.90;;;;;;5093822;28;20811;-81
2021/04/06 12:16:14;;;;;;;5.73;1.03;;;8.40;62.10;;;;;;5094049;28;20412;-81
2021/04/06 12:18:40;;;;;;;2.43;1.00;;;8.10;62.00;;;;;;5093736;28;20994;-81
2021/04/06 12:21:08;;;;;;;0.90;0.90;;;7.80;61.80;;;;;;5094209;28;20442;-81
2021/04/06 12:23:36;;;;;;;1.20;1.00;;;7.80;61.60;;;;;;5094235;28;20432;-81
2021/04/06 12:26:02;;;;;;;2.13;0.97;;;7.60;59.30;;;;;;5093831;28;20433;-81
2021/04/06 12:28:29;;;;;;;1.70;1.10;;;7.30;58.30;;;;;;5094823;28;20433;-81
2021/04/06 12:30:55;;;;;;;1.50;1.13;;;7.10;59.40;;;;;;5094623;28;20452;-81
2021/04/06 12:33:21;;;;;;;1.40;1.30;;;7.10;61.10;;;;;;5094721;28;20432;-81
2021/04/06 12:35:48;;;;;;;1.53;0.90;;;7.20;60.70;;;;;;5094308;28;20429;-81
2021/04/06 12:38:14;;;;;;;1.70;0.97;;;7.10;60.90;;;;;;5093606;28;20435;-81
2021/04/06 12:40:41;;;;;;;1.63;1.20;;;7.00;63.00;;;;;;5093862;28;20468;-81
2021/04/06 12:43:10;;;;;;;2.30;0.87;;;7.00;62.00;;;;;;5093906;28;20481;-81
2021/04/06 12:45:37;;;;;;;1.57;0.90;;;7.00;60.60;;;;;;5094247;28;20510;-81
2021/04/06 12:48:04;;;;;;;3.07;0.87;;;6.60;61.40;;;;;;5093514;28;20468;-81
2021/04/06 12:50:30;;;;;;;2.33;1.13;;;6.60;60.10;;;;;;5093520;28;20813;-81
2021/04/06 12:52:56;;;;;;;2.77;1.30;;;6.70;63.00;;;;;;5093869;28;20440;-81
2021/04/06 12:55:23;;;;;;;2.40;1.10;;;6.90;64.10;;;;;;5093553;28;20481;-81
2021/04/06 12:57:50;;;;;;;2.63;1.23;;;7.00;61.90;;;;;;5093715;28;20468;-81
2021/04/06 13:00:18;;;;;;;2.10;1.20;;;7.30;60.40;;;;;;5093218;28;20488;-81
2021/04/06 13:02:44;;;;;;;1.93;0.80;;;7.10;60.30;;;;;;5093602;28;20432;-81